Time;durP1;ratioP1;P1;durP2;ratioP2;P2;SDS_P1;SDS_P2;PMS_P1;PMS_P2;Temp;Humidity;BMP_temperature;BMP_pressure;BME280_temperature;BME280_humidity;BME280_pressure;Samples;Min_cycle;Max_cycle;Signal;HPM_P1;HPM_P2
2023/12/02 00:02:20;;;;;;;17.80;10.63;;;-0.50;99.90;;;;;;5058343;28;20220;-52
2023/12/02 00:04:47;;;;;;;17.30;10.60;;;-0.60;99.90;;;;;;5062806;28;20222;-52
2023/12/02 00:07:14;;;;;;;14.97;10.90;;;-0.60;99.90;;;;;;5043806;28;20566;-51
2023/12/02 00:09:42;;;;;;;17.70;11.23;;;-0.60;99.90;;;;;;5046066;28;20254;-48
2023/12/02 00:12:09;;;;;;;18.17;11.00;;;-0.60;99.90;;;;;;5061286;28;20199;-55
2023/12/02 00:14:35;;;;;;;16.20;10.87;;;-0.60;99.90;;;;;;5057153;28;20218;-53
2023/12/02 00:17:02;;;;;;;15.87;11.03;;;-0.60;99.90;;;;;;5062264;28;20191;-52
2023/12/02 00:19:29;;;;;;;15.10;10.43;;;-0.60;99.90;;;;;;5057883;28;20216;-50
2023/12/02 00:21:56;;;;;;;16.13;10.17;;;-0.70;99.90;;;;;;5062405;28;20205;-50
2023/12/02 00:24:23;;;;;;;19.10;10.93;;;-0.60;99.90;;;;;;5032355;28;20291;-54
2023/12/02 00:26:51;;;;;;;19.17;10.33;;;-0.60;99.90;;;;;;5052564;28;20206;-53
2023/12/02 00:29:18;;;;;;;14.83;10.10;;;-0.70;99.90;;;;;;5059064;28;20222;-49
2023/12/02 00:31:44;;;;;;;13.23;9.67;;;-0.70;99.90;;;;;;5062082;28;20199;-55
2023/12/02 00:34:11;;;;;;;14.97;10.40;;;-0.70;99.90;;;;;;5060402;28;20247;-48
2023/12/02 00:36:38;;;;;;;15.40;10.40;;;-0.70;99.90;;;;;;5060444;28;20239;-53
2023/12/02 00:39:05;;;;;;;15.07;10.13;;;-0.70;99.90;;;;;;5034730;28;20226;-50
2023/12/02 00:41:31;;;;;;;15.13;10.07;;;-0.70;99.90;;;;;;5043697;28;20205;-52
2023/12/02 00:44:00;;;;;;;15.60;10.33;;;-0.70;99.90;;;;;;5061624;28;20607;-53
2023/12/02 00:46:26;;;;;;;13.80;9.53;;;-0.70;99.90;;;;;;5057749;28;20210;-52
2023/12/02 00:48:53;;;;;;;14.37;9.33;;;-0.70;99.90;;;;;;5058564;28;20251;-54
2023/12/02 00:51:20;;;;;;;14.03;9.70;;;-0.70;99.90;;;;;;5061009;28;20219;-50
2023/12/02 00:53:47;;;;;;;17.00;9.53;;;-0.70;99.90;;;;;;5033203;28;20190;-51
2023/12/02 00:56:14;;;;;;;13.40;8.37;;;-0.80;99.90;;;;;;5055452;28;20282;-51
2023/12/02 00:58:41;;;;;;;14.33;9.23;;;-0.80;99.90;;;;;;5050828;28;20206;-50
2023/12/02 01:01:09;;;;;;;15.70;10.43;;;-0.80;99.90;;;;;;5059758;28;20275;-52
2023/12/02 01:03:36;;;;;;;12.77;9.43;;;-0.70;99.90;;;;;;5056840;28;20198;-52
2023/12/02 01:06:04;;;;;;;12.07;8.83;;;-0.70;99.90;;;;;;5059334;28;20845;-52
2023/12/02 01:08:31;;;;;;;16.87;9.40;;;-0.70;99.90;;;;;;5060997;28;20252;-48
2023/12/02 01:10:58;;;;;;;11.70;8.03;;;-0.70;99.90;;;;;;5033021;28;20821;-55
2023/12/02 01:13:25;;;;;;;16.93;9.57;;;-0.70;99.90;;;;;;5051599;28;20230;-53
2023/12/02 01:15:51;;;;;;;15.17;10.23;;;-0.70;99.90;;;;;;5057793;28;20210;-55
2023/12/02 01:18:19;;;;;;;13.57;9.33;;;-0.70;99.90;;;;;;5061833;28;20718;-53
2023/12/02 01:20:46;;;;;;;12.73;9.40;;;-0.80;99.90;;;;;;5058239;28;20606;-52
2023/12/02 01:23:13;;;;;;;15.50;10.00;;;-0.70;99.90;;;;;;5062054;28;20257;-52
2023/12/02 01:25:40;;;;;;;14.70;9.87;;;-0.70;99.90;;;;;;5042827;28;20264;-48
2023/12/02 01:28:07;;;;;;;14.20;10.33;;;-0.70;99.90;;;;;;5040880;28;20213;-52
2023/12/02 01:30:34;;;;;;;14.60;9.67;;;-0.70;99.90;;;;;;5060418;28;20214;-51
2023/12/02 01:33:00;;;;;;;15.40;9.10;;;-0.70;99.90;;;;;;5059167;28;20205;-51
2023/12/02 01:35:29;;;;;;;13.80;9.53;;;-0.70;99.90;;;;;;5061342;28;20211;-50
2023/12/02 01:37:56;;;;;;;15.27;10.43;;;-0.70;99.90;;;;;;5058297;28;20952;-51
2023/12/02 01:40:22;;;;;;;14.43;9.43;;;-0.70;99.90;;;;;;5061482;28;20196;-53
2023/12/02 01:42:49;;;;;;;14.93;9.47;;;-0.80;99.90;;;;;;5023931;28;20234;-52
2023/12/02 01:45:16;;;;;;;15.60;9.20;;;-0.80;99.90;;;;;;5048201;28;20555;-52
2023/12/02 01:47:44;;;;;;;14.33;9.17;;;-0.80;99.90;;;;;;5059560;28;20217;-53
2023/12/02 01:50:12;;;;;;;16.93;9.60;;;-0.80;99.90;;;;;;5065006;28;20212;-51
2023/12/02 01:52:40;;;;;;;13.60;10.03;;;-0.80;99.90;;;;;;5063087;28;20263;-50
2023/12/02 01:55:08;;;;;;;15.40;9.97;;;-0.80;99.90;;;;;;5061744;28;20214;-51
2023/12/02 01:57:35;;;;;;;13.33;9.67;;;-0.80;99.90;;;;;;5051774;28;20229;-50
2023/12/02 02:00:03;;;;;;;14.90;9.80;;;-0.80;99.90;;;;;;5039764;28;20207;-53
2023/12/02 02:02:38;;;;;;;14.40;8.90;;;-0.80;99.90;;;;;;5059718;28;20198;-50
2023/12/02 02:05:06;;;;;;;17.37;10.00;;;-0.80;99.90;;;;;;5063120;28;20217;-50
2023/12/02 02:07:32;;;;;;;14.90;9.90;;;-0.80;99.90;;;;;;5063704;28;20259;-49
2023/12/02 02:10:02;;;;;;;15.87;10.00;;;-0.80;99.90;;;;;;5061622;28;20960;-54
2023/12/02 02:12:28;;;;;;;14.83;9.27;;;-0.80;99.90;;;;;;5064621;28;20277;-52
2023/12/02 02:14:55;;;;;;;14.87;8.93;;;-0.80;99.90;;;;;;5035542;28;20407;-53
2023/12/02 02:17:22;;;;;;;13.90;9.13;;;-0.80;99.90;;;;;;5055952;28;20201;-52
2023/12/02 02:19:49;;;;;;;12.93;9.93;;;-0.80;99.90;;;;;;5060756;28;20247;-52
2023/12/02 02:22:17;;;;;;;12.57;9.00;;;-0.80;99.90;;;;;;5064262;28;20210;-50
2023/12/02 02:24:44;;;;;;;15.57;10.23;;;-0.80;99.90;;;;;;5061062;28;20222;-50
2023/12/02 02:27:11;;;;;;;14.87;10.00;;;-0.80;99.90;;;;;;5063921;28;20750;-49
2023/12/02 02:29:37;;;;;;;13.87;9.30;;;-0.80;99.90;;;;;;5036156;28;20667;-48
2023/12/02 02:32:05;;;;;;;15.17;9.83;;;-0.80;99.90;;;;;;5053651;28;22914;-52
2023/12/02 02:34:32;;;;;;;14.60;9.60;;;-0.80;99.90;;;;;;5063439;28;20751;-50
2023/12/02 02:36:59;;;;;;;14.83;10.20;;;-0.80;99.90;;;;;;5061498;28;20913;-53
2023/12/02 02:39:27;;;;;;;14.47;9.77;;;-0.80;99.90;;;;;;5064178;28;20195;-50
2023/12/02 02:41:55;;;;;;;14.33;9.10;;;-0.80;99.90;;;;;;5060682;28;20191;-52
2023/12/02 02:44:21;;;;;;;15.70;9.57;;;-0.80;99.90;;;;;;5063251;28;20197;-49
2023/12/02 02:46:48;;;;;;;14.20;9.57;;;-0.80;99.90;;;;;;5024599;28;20981;-48
2023/12/02 02:49:15;;;;;;;13.57;9.07;;;-0.80;99.90;;;;;;5063831;28;20208;-48
2023/12/02 02:51:42;;;;;;;14.40;9.87;;;-0.80;99.90;;;;;;5061388;28;20714;-50
2023/12/02 02:54:09;;;;;;;17.63;9.83;;;-0.80;99.90;;;;;;5063601;28;20191;-49
2023/12/02 02:56:38;;;;;;;14.23;10.10;;;-0.80;99.90;;;;;;5060937;28;20202;-47
2023/12/02 02:59:04;;;;;;;14.10;9.70;;;-0.80;99.90;;;;;;5061839;28;20187;-48
2023/12/02 03:01:31;;;;;;;17.00;9.50;;;-0.80;99.90;;;;;;5040126;28;20704;-52
2023/12/02 03:03:58;;;;;;;15.20;9.20;;;-0.80;99.90;;;;;;5052058;28;21010;-52
2023/12/02 03:06:25;;;;;;;12.77;9.53;;;-0.80;99.90;;;;;;5063606;28;20229;-49
2023/12/02 03:08:52;;;;;;;15.57;9.80;;;-0.80;99.90;;;;;;5059985;28;20195;-50
2023/12/02 03:11:20;;;;;;;12.70;8.70;;;-0.80;99.90;;;;;;5063642;28;20221;-47
2023/12/02 03:13:48;;;;;;;15.93;9.30;;;-0.70;99.90;;;;;;5060136;28;20206;-53
2023/12/02 03:16:15;;;;;;;15.83;9.57;;;-0.70;99.90;;;;;;5038227;28;20236;-47
2023/12/02 03:18:42;;;;;;;14.20;9.53;;;-0.80;99.90;;;;;;5054293;28;20216;-48
2023/12/02 03:21:09;;;;;;;15.30;9.93;;;-0.80;99.90;;;;;;5062325;28;20183;-47
2023/12/02 03:23:36;;;;;;;11.70;8.63;;;-0.80;99.90;;;;;;5060778;28;20262;-53
2023/12/02 03:26:02;;;;;;;13.70;9.27;;;-0.80;99.90;;;;;;5061497;28;20291;-47
2023/12/02 03:28:29;;;;;;;13.23;8.77;;;-0.80;99.90;;;;;;5062679;28;20240;-52
2023/12/02 03:30:57;;;;;;;17.43;9.70;;;-0.80;99.90;;;;;;5033856;28;23132;-47
2023/12/02 03:33:24;;;;;;;13.30;8.83;;;-0.80;99.90;;;;;;5063368;28;20263;-49
2023/12/02 03:35:51;;;;;;;14.40;9.37;;;-0.80;99.90;;;;;;5041190;28;20230;-47
2023/12/02 03:38:17;;;;;;;14.30;8.87;;;-0.80;99.90;;;;;;5061702;28;20275;-50
2023/12/02 03:40:44;;;;;;;14.63;9.07;;;-0.80;99.90;;;;;;5058301;28;20252;-50
2023/12/02 03:43:11;;;;;;;14.67;8.83;;;-0.80;99.90;;;;;;5062263;28;20198;-50
2023/12/02 03:45:38;;;;;;;13.13;8.87;;;-0.80;99.90;;;;;;5061274;28;20213;-51
2023/12/02 03:48:06;;;;;;;12.90;9.73;;;-0.80;99.90;;;;;;5037549;28;20247;-50
2023/12/02 03:50:33;;;;;;;14.17;9.13;;;-0.80;99.90;;;;;;5044905;28;20248;-53
2023/12/02 03:53:00;;;;;;;15.07;9.23;;;-0.70;99.90;;;;;;5059634;28;20197;-51
2023/12/02 03:55:27;;;;;;;16.57;9.77;;;-0.70;99.90;;;;;;5062599;28;20271;-49
2023/12/02 03:57:54;;;;;;;13.23;9.23;;;-0.70;99.90;;;;;;5058558;28;20206;-52
2023/12/02 04:00:21;;;;;;;14.63;9.07;;;-0.70;99.90;;;;;;5061458;28;20228;-50
2023/12/02 04:02:48;;;;;;;12.27;8.90;;;-0.70;99.90;;;;;;5033502;28;20285;-47
2023/12/02 04:05:16;;;;;;;14.87;9.40;;;-0.70;99.90;;;;;;5051901;28;20225;-51
2023/12/02 04:07:43;;;;;;;13.57;8.73;;;-0.70;99.90;;;;;;5059179;28;20198;-51
2023/12/02 04:10:09;;;;;;;11.97;7.80;;;-0.70;99.90;;;;;;5062144;28;20237;-49
2023/12/02 04:12:36;;;;;;;11.97;7.83;;;-0.70;99.90;;;;;;5060782;28;20225;-52
2023/12/02 04:15:04;;;;;;;13.73;8.93;;;-0.70;99.90;;;;;;5059326;28;20498;-48
2023/12/02 04:17:31;;;;;;;13.20;9.30;;;-0.70;99.90;;;;;;5055379;28;20270;-48
2023/12/02 04:19:58;;;;;;;14.40;8.50;;;-0.70;99.90;;;;;;5043110;28;20263;-48
2023/12/02 04:22:26;;;;;;;12.83;8.50;;;-0.60;99.90;;;;;;5053089;28;20233;-49
2023/12/02 04:24:53;;;;;;;12.17;8.67;;;-0.60;99.90;;;;;;5058386;28;20225;-47
2023/12/02 04:27:20;;;;;;;14.87;8.97;;;-0.60;99.90;;;;;;5059145;28;20193;-48
2023/12/02 04:29:47;;;;;;;15.53;9.60;;;-0.60;99.90;;;;;;5058204;28;20812;-49
2023/12/02 04:32:13;;;;;;;13.63;9.40;;;-0.60;99.90;;;;;;5061967;28;20214;-51
2023/12/02 04:34:40;;;;;;;14.70;9.20;;;-0.60;99.90;;;;;;5027790;28;20253;-54
2023/12/02 04:37:07;;;;;;;13.67;8.50;;;-0.60;99.90;;;;;;5048680;28;20662;-51
2023/12/02 04:39:35;;;;;;;14.37;9.30;;;-0.60;99.90;;;;;;5056356;28;20291;-52
2023/12/02 04:42:02;;;;;;;14.87;8.87;;;-0.60;99.90;;;;;;5056591;28;20186;-48
2023/12/02 04:44:29;;;;;;;11.47;8.47;;;-0.60;99.90;;;;;;5061828;28;20226;-51
2023/12/02 04:46:56;;;;;;;14.90;9.50;;;-0.60;99.90;;;;;;5059205;28;20267;-50
2023/12/02 04:49:22;;;;;;;14.03;9.53;;;-0.60;99.90;;;;;;5037587;28;20202;-50
2023/12/02 04:51:49;;;;;;;16.20;9.30;;;-0.60;99.90;;;;;;5049677;28;20203;-48
2023/12/02 04:54:16;;;;;;;14.17;9.23;;;-0.60;99.90;;;;;;5062121;28;20202;-50
2023/12/02 04:56:45;;;;;;;12.90;9.37;;;-0.60;99.90;;;;;;5059045;28;20198;-51
2023/12/02 04:59:12;;;;;;;12.03;8.73;;;-0.60;99.90;;;;;;5061502;28;20202;-48
2023/12/02 05:01:39;;;;;;;14.30;9.30;;;-0.60;99.90;;;;;;5058758;28;20606;-53
2023/12/02 05:04:06;;;;;;;14.77;9.63;;;-0.60;99.90;;;;;;5059729;28;20205;-48
2023/12/02 05:06:33;;;;;;;14.50;9.73;;;-0.60;99.90;;;;;;5035255;28;20226;-51
2023/12/02 05:08:59;;;;;;;13.00;8.47;;;-0.60;99.90;;;;;;5053242;28;20262;-51
2023/12/02 05:11:27;;;;;;;15.23;9.23;;;-0.50;99.90;;;;;;5061429;28;20302;-50
2023/12/02 05:13:55;;;;;;;16.00;9.93;;;-0.50;99.90;;;;;;5058282;28;20278;-48
2023/12/02 05:16:22;;;;;;;15.00;9.70;;;-0.50;99.90;;;;;;5061451;28;20226;-47
2023/12/02 05:18:49;;;;;;;12.73;8.77;;;-0.40;99.90;;;;;;5059919;28;20952;-49
2023/12/02 05:21:18;;;;;;;14.27;9.57;;;-0.40;99.90;;;;;;5038720;28;20212;-49
2023/12/02 05:23:44;;;;;;;13.10;9.30;;;-0.40;99.90;;;;;;5054246;28;20202;-49
2023/12/02 05:26:12;;;;;;;14.13;9.10;;;-0.40;99.90;;;;;;5065533;28;20290;-53
2023/12/02 05:28:39;;;;;;;13.20;8.90;;;-0.40;99.90;;;;;;5059483;28;20712;-53
2023/12/02 05:31:08;;;;;;;15.63;10.03;;;-0.40;99.90;;;;;;5063963;28;20605;-50
2023/12/02 05:33:35;;;;;;;13.43;9.57;;;-0.40;99.90;;;;;;5064075;28;20197;-53
2023/12/02 05:36:01;;;;;;;13.93;9.50;;;-0.40;99.90;;;;;;5038178;28;20472;-47
2023/12/02 05:38:28;;;;;;;15.87;9.40;;;-0.50;99.90;;;;;;5055579;28;20204;-53
2023/12/02 05:40:55;;;;;;;16.33;9.97;;;-0.50;99.90;;;;;;5062310;28;20206;-47
2023/12/02 05:43:22;;;;;;;14.50;9.77;;;-0.50;99.90;;;;;;5064449;28;20202;-51
2023/12/02 05:45:49;;;;;;;16.00;9.63;;;-0.40;99.90;;;;;;5061836;28;20241;-49
2023/12/02 05:48:18;;;;;;;14.47;10.03;;;-0.40;99.90;;;;;;5065015;28;20511;-49
2023/12/02 05:50:45;;;;;;;14.90;9.17;;;-0.50;99.90;;;;;;5038705;28;20244;-49
2023/12/02 05:53:12;;;;;;;15.43;9.53;;;-0.40;99.90;;;;;;5056423;28;20218;-50
2023/12/02 05:55:38;;;;;;;16.50;9.20;;;-0.40;99.90;;;;;;5063638;28;20260;-53
2023/12/02 05:58:05;;;;;;;15.40;9.50;;;-0.40;99.90;;;;;;5063869;28;20756;-49
2023/12/02 06:00:32;;;;;;;14.77;9.30;;;-0.40;99.90;;;;;;5064193;28;20207;-51
2023/12/02 06:02:59;;;;;;;14.70;9.77;;;-0.40;99.90;;;;;;5062022;28;20208;-51
2023/12/02 06:05:27;;;;;;;18.17;10.20;;;-0.40;99.90;;;;;;5065057;28;20700;-47
2023/12/02 06:07:53;;;;;;;13.00;9.17;;;-0.40;99.90;;;;;;5026798;28;20218;-50
2023/12/02 06:10:21;;;;;;;13.57;10.10;;;-0.40;99.90;;;;;;5065205;28;20244;-50
2023/12/02 06:12:48;;;;;;;15.90;10.03;;;-0.40;99.90;;;;;;5058782;28;20222;-48
2023/12/02 06:15:15;;;;;;;14.73;9.20;;;-0.50;99.90;;;;;;5063388;28;20295;-49
2023/12/02 06:17:41;;;;;;;15.40;10.20;;;-0.50;99.90;;;;;;5060771;28;20244;-52
2023/12/02 06:20:11;;;;;;;15.43;10.37;;;-0.40;99.90;;;;;;5061274;28;20350;-49
2023/12/02 06:22:39;;;;;;;17.13;10.40;;;-0.50;99.90;;;;;;5031854;28;20203;-49
2023/12/02 06:25:06;;;;;;;15.60;10.30;;;-0.50;99.90;;;;;;5052480;28;20413;-48
2023/12/02 06:27:33;;;;;;;15.70;10.30;;;-0.50;99.90;;;;;;5062172;28;20560;-53
2023/12/02 06:30:00;;;;;;;17.27;10.23;;;-0.50;99.90;;;;;;5060296;28;20191;-53
2023/12/02 06:32:27;;;;;;;15.73;10.60;;;-0.50;99.90;;;;;;5062815;28;20279;-51
2023/12/02 06:34:53;;;;;;;18.13;11.17;;;-0.50;99.90;;;;;;5059931;28;20275;-50
2023/12/02 06:37:20;;;;;;;15.80;10.07;;;-0.50;99.90;;;;;;5038330;28;20242;-47
2023/12/02 06:39:48;;;;;;;16.57;10.57;;;-0.40;99.90;;;;;;5051136;28;20208;-48
2023/12/02 06:42:15;;;;;;;17.30;10.60;;;-0.40;99.90;;;;;;5062681;28;20797;-50
2023/12/02 06:44:43;;;;;;;16.27;10.83;;;-0.50;99.90;;;;;;5056275;28;20235;-55
2023/12/02 06:47:09;;;;;;;15.57;10.10;;;-0.50;99.90;;;;;;5061693;28;20252;-46
2023/12/02 06:49:36;;;;;;;18.27;10.27;;;-0.40;99.90;;;;;;5060574;28;20256;-52
2023/12/02 06:52:03;;;;;;;15.03;10.80;;;-0.40;99.90;;;;;;5061247;28;20276;-50
2023/12/02 06:54:35;;;;;;;14.20;9.57;;;-0.40;99.90;;;;;;5034963;28;20276;-47
2023/12/02 06:57:03;;;;;;;14.57;9.30;;;-0.40;99.90;;;;;;5056254;28;20696;-49
2023/12/02 06:59:31;;;;;;;16.50;10.47;;;-0.40;99.90;;;;;;5061403;28;20232;-53
2023/12/02 07:01:58;;;;;;;16.37;10.70;;;-0.40;99.90;;;;;;5059945;28;20216;-50
2023/12/02 07:04:25;;;;;;;14.97;10.93;;;-0.40;99.90;;;;;;5062286;28;20238;-50
2023/12/02 07:06:52;;;;;;;13.43;9.50;;;-0.40;99.90;;;;;;5059147;28;20194;-48
2023/12/02 07:09:18;;;;;;;16.87;10.83;;;-0.40;99.90;;;;;;5037898;28;20198;-50
2023/12/02 07:11:45;;;;;;;14.87;9.90;;;-0.40;99.90;;;;;;5015077;28;1073046;-46
2023/12/02 07:14:13;;;;;;;16.93;10.40;;;-0.40;99.90;;;;;;5063127;28;20425;-50
2023/12/02 07:16:41;;;;;;;18.73;10.80;;;-0.40;99.90;;;;;;5057646;28;20203;-51
2023/12/02 07:19:07;;;;;;;17.53;10.83;;;-0.40;99.90;;;;;;5062435;28;20252;-47
2023/12/02 07:21:34;;;;;;;18.50;10.90;;;-0.40;99.90;;;;;;5060836;28;20197;-51
2023/12/02 07:24:01;;;;;;;22.10;10.87;;;-0.40;99.90;;;;;;5061069;28;20193;-49
2023/12/02 07:26:28;;;;;;;18.50;10.77;;;-0.30;99.90;;;;;;5028554;28;20222;-48
2023/12/02 07:28:54;;;;;;;22.17;11.07;;;-0.40;99.90;;;;;;5059599;28;20252;-51
2023/12/02 07:31:23;;;;;;;20.03;11.23;;;-0.30;99.90;;;;;;5060807;28;20214;-50
2023/12/02 07:33:49;;;;;;;16.97;10.77;;;-0.40;99.90;;;;;;5054984;28;20202;-46
2023/12/02 07:36:16;;;;;;;20.07;11.17;;;-0.40;99.90;;;;;;5062851;28;20749;-51
2023/12/02 07:38:43;;;;;;;18.20;11.57;;;-0.30;99.90;;;;;;5060105;28;20195;-51
2023/12/02 07:41:10;;;;;;;19.27;11.03;;;-0.30;99.90;;;;;;5036520;28;20207;-46
2023/12/02 07:43:37;;;;;;;19.60;11.33;;;-0.30;99.90;;;;;;5051830;28;20302;-51
2023/12/02 07:46:04;;;;;;;17.63;11.50;;;-0.30;99.90;;;;;;5060889;28;20571;-48
2023/12/02 07:48:32;;;;;;;15.93;10.97;;;-0.30;99.90;;;;;;5061438;28;20584;-51
2023/12/02 07:50:59;;;;;;;18.33;10.83;;;-0.30;99.90;;;;;;5059663;28;20900;-49
2023/12/02 07:53:26;;;;;;;21.47;12.27;;;-0.20;99.90;;;;;;5061961;28;20252;-47
2023/12/02 07:55:52;;;;;;;19.53;11.27;;;-0.20;99.90;;;;;;5033189;28;20287;-51
2023/12/02 07:58:19;;;;;;;19.93;11.83;;;-0.20;99.90;;;;;;5054365;28;20211;-47
2023/12/02 08:00:46;;;;;;;17.37;11.30;;;-0.20;99.90;;;;;;5058892;28;20279;-52
2023/12/02 08:03:13;;;;;;;19.23;12.27;;;-0.20;99.90;;;;;;5062400;28;20691;-51
2023/12/02 08:05:41;;;;;;;16.13;10.23;;;-0.20;99.90;;;;;;5059722;28;20621;-53
2023/12/02 08:08:08;;;;;;;18.80;10.90;;;-0.10;99.90;;;;;;5061409;28;20210;-49
2023/12/02 08:10:36;;;;;;;22.63;11.97;;;-0.10;99.90;;;;;;5060619;28;20618;-51
2023/12/02 08:13:03;;;;;;;20.63;11.40;;;-0.20;99.90;;;;;;5036537;28;20306;-47
2023/12/02 08:15:29;;;;;;;18.03;11.20;;;-0.20;99.90;;;;;;5051551;28;20223;-53
2023/12/02 08:17:56;;;;;;;16.13;11.10;;;-0.20;99.90;;;;;;5058779;28;20197;-48
2023/12/02 08:20:23;;;;;;;17.57;11.27;;;-0.20;99.90;;;;;;5061634;28;20203;-47
2023/12/02 08:22:51;;;;;;;18.53;11.17;;;-0.20;99.90;;;;;;5057978;28;20276;-48
2023/12/02 08:25:18;;;;;;;18.23;10.90;;;-0.20;99.90;;;;;;5061497;28;20279;-49
2023/12/02 08:27:45;;;;;;;18.63;11.70;;;-0.20;99.90;;;;;;5032033;28;20247;-52
2023/12/02 08:30:13;;;;;;;16.93;10.63;;;-0.20;99.90;;;;;;5052347;28;20679;-49
2023/12/02 08:32:40;;;;;;;18.77;11.53;;;-0.20;99.90;;;;;;5059666;28;20225;-52
2023/12/02 08:35:07;;;;;;;20.30;12.13;;;-0.20;99.90;;;;;;5060225;28;20218;-47
2023/12/02 08:37:34;;;;;;;18.13;11.37;;;-0.20;99.90;;;;;;5058053;28;20195;-49
2023/12/02 08:40:05;;;;;;;20.23;11.57;;;-0.20;99.90;;;;;;5059663;28;20254;-46
2023/12/02 08:42:32;;;;;;;19.67;11.70;;;-0.20;99.90;;;;;;5053127;28;20255;-49
2023/12/02 08:44:59;;;;;;;19.30;12.10;;;-0.20;99.90;;;;;;5032961;28;20228;-47
2023/12/02 08:47:26;;;;;;;19.37;11.43;;;-0.20;99.90;;;;;;5053698;28;20245;-48
2023/12/02 08:49:52;;;;;;;20.00;11.87;;;-0.20;99.90;;;;;;5057852;28;20593;-46
2023/12/02 08:52:19;;;;;;;18.53;11.83;;;-0.20;99.90;;;;;;5061190;28;20618;-47
2023/12/02 08:54:46;;;;;;;17.70;12.13;;;-0.10;99.90;;;;;;5046998;28;20666;-50
2023/12/02 08:57:14;;;;;;;18.40;11.47;;;-0.10;99.90;;;;;;5056581;28;20240;-49
2023/12/02 08:59:41;;;;;;;17.27;11.13;;;-0.10;99.90;;;;;;5035042;28;20294;-46
2023/12/02 09:02:08;;;;;;;20.90;12.43;;;-0.10;99.90;;;;;;5051939;28;20718;-53
2023/12/02 09:04:35;;;;;;;18.67;10.87;;;-0.10;99.90;;;;;;5058006;28;20272;-46
2023/12/02 09:07:02;;;;;;;18.33;10.50;;;-0.20;99.90;;;;;;5061593;28;20199;-47
2023/12/02 09:09:29;;;;;;;19.77;11.70;;;-0.10;99.90;;;;;;5057341;28;20206;-51
2023/12/02 09:11:56;;;;;;;17.63;11.10;;;-0.10;99.90;;;;;;5061716;28;20316;-48
2023/12/02 09:14:24;;;;;;;16.27;11.50;;;-0.10;99.90;;;;;;5028364;28;20446;-51
2023/12/02 09:16:51;;;;;;;17.07;11.73;;;-0.10;99.90;;;;;;5051809;28;20229;-50
2023/12/02 09:19:55;;;;;;;15.27;10.50;;;-0.10;99.90;;;;;;5058307;28;20206;-50
2023/12/02 09:22:46;;;;;;;18.60;11.53;;;-0.10;99.90;;;;;;5057210;28;20206;-52
2023/12/02 09:25:28;;;;;;;18.20;11.17;;;-0.10;99.90;;;;;;5058600;28;20224;-48
2023/12/02 09:28:15;;;;;;;15.80;10.77;;;-0.10;99.90;;;;;;5060876;28;20202;-51
2023/12/02 09:30:56;;;;;;;15.10;10.17;;;-0.10;99.90;;;;;;5023442;28;20432;-48
2023/12/02 09:33:22;;;;;;;17.50;11.33;;;-0.10;99.90;;;;;;5048558;28;20226;-53
2023/12/02 09:35:54;;;;;;;17.03;11.20;;;0.00;99.90;;;;;;5061220;28;20210;-49
2023/12/02 09:38:21;;;;;;;15.60;11.67;;;0.00;99.90;;;;;;5058093;28;20202;-53
2023/12/02 09:41:22;;;;;;;18.27;11.37;;;-0.10;99.90;;;;;;5060852;28;20198;-51
2023/12/02 09:44:03;;;;;;;17.20;10.70;;;-0.10;99.90;;;;;;5060601;28;20200;-49
2023/12/02 09:46:34;;;;;;;19.40;11.70;;;0.00;99.90;;;;;;5028341;28;20222;-47
2023/12/02 09:49:35;;;;;;;19.73;11.67;;;0.00;99.90;;;;;;5051414;28;20596;-50
2023/12/02 09:52:45;;;;;;;17.17;10.97;;;0.00;99.90;;;;;;5061486;28;20255;-46
2023/12/02 09:55:17;;;;;;;16.70;11.17;;;0.10;99.90;;;;;;5034208;28;20717;-52
2023/12/02 09:57:52;;;;;;;19.00;11.73;;;0.10;99.90;;;;;;5044750;28;20208;-48
2023/12/02 10:00:25;;;;;;;18.13;12.30;;;0.10;99.90;;;;;;5030929;28;20211;-49
2023/12/02 10:03:08;;;;;;;20.17;12.00;;;0.10;99.90;;;;;;5053335;28;20272;-49
2023/12/02 10:05:44;;;;;;;16.17;10.87;;;0.10;99.90;;;;;;5055614;28;20236;-48
2023/12/02 10:08:17;;;;;;;19.87;12.37;;;0.10;99.90;;;;;;5059925;28;20255;-50
2023/12/02 10:10:53;;;;;;;17.57;12.20;;;0.20;99.90;;;;;;5064990;28;20202;-50
2023/12/02 10:13:23;;;;;;;15.97;10.87;;;0.20;99.90;;;;;;5060253;28;20221;-47
2023/12/02 10:15:54;;;;;;;17.53;11.93;;;0.30;99.90;;;;;;5035173;28;20233;-47
2023/12/02 10:18:29;;;;;;;18.50;12.37;;;0.30;99.90;;;;;;5060648;28;20256;-49
2023/12/02 10:21:00;;;;;;;17.37;11.10;;;0.30;99.90;;;;;;5055844;28;20206;-49
2023/12/02 10:23:33;;;;;;;15.13;10.70;;;0.30;99.90;;;;;;5062092;28;20244;-48
2023/12/02 10:26:06;;;;;;;15.57;9.90;;;0.30;99.90;;;;;;5051735;28;20222;-52
2023/12/02 10:28:47;;;;;;;10.97;8.40;;;0.40;99.90;;;;;;5063349;28;20213;-49
2023/12/02 10:31:22;;;;;;;15.60;9.40;;;0.30;99.90;;;;;;5035312;28;20279;-51
2023/12/02 10:33:57;;;;;;;12.50;8.03;;;0.30;99.90;;;;;;5061650;28;20223;-49
2023/12/02 10:36:28;;;;;;;14.63;7.83;;;0.30;99.90;;;;;;5051824;28;20871;-48
2023/12/02 10:39:02;;;;;;;9.83;6.57;;;0.30;99.90;;;;;;5064433;28;20209;-51
2023/12/02 10:41:40;;;;;;;12.10;7.17;;;0.30;99.90;;;;;;5052868;28;20479;-49
2023/12/02 10:44:08;;;;;;;11.13;7.23;;;0.30;99.90;;;;;;5061533;28;20673;-47
2023/12/02 10:46:35;;;;;;;10.87;6.80;;;0.30;99.90;;;;;;5063374;28;20268;-48
2023/12/02 10:49:04;;;;;;;9.03;6.37;;;0.30;99.90;;;;;;5038422;28;20241;-53
2023/12/02 10:51:35;;;;;;;9.63;6.70;;;0.30;99.90;;;;;;5053625;28;20203;-46
2023/12/02 10:54:05;;;;;;;7.57;5.83;;;0.20;99.90;;;;;;5062682;28;20257;-50
2023/12/02 10:56:35;;;;;;;5.83;5.07;;;0.20;99.90;;;;;;5062151;28;20297;-47
2023/12/02 10:59:03;;;;;;;8.57;5.60;;;0.20;99.90;;;;;;5061527;28;20199;-52
2023/12/02 11:01:37;;;;;;;6.50;5.30;;;0.20;99.90;;;;;;5062237;28;20182;-46
2023/12/02 11:04:11;;;;;;;9.20;5.80;;;0.20;99.90;;;;;;5036141;28;20702;-49
2023/12/02 11:06:40;;;;;;;8.90;5.50;;;0.30;99.90;;;;;;5047413;28;20251;-52
2023/12/02 11:09:16;;;;;;;6.33;5.37;;;0.20;99.90;;;;;;5061077;28;20203;-50
2023/12/02 11:11:53;;;;;;;6.47;5.00;;;0.30;99.90;;;;;;5048736;28;20377;-52
2023/12/02 11:14:23;;;;;;;6.03;4.77;;;0.40;99.90;;;;;;5061039;28;20293;-46
2023/12/02 11:17:02;;;;;;;8.60;4.97;;;0.40;99.90;;;;;;5057482;28;20191;-48
2023/12/02 11:19:48;;;;;;;7.50;5.40;;;0.40;99.90;;;;;;5039088;28;20224;-51
2023/12/02 11:22:36;;;;;;;6.43;5.40;;;0.40;99.90;;;;;;5048342;28;20305;-46
2023/12/02 11:25:15;;;;;;;7.07;5.07;;;0.40;99.90;;;;;;5060780;28;20214;-47
2023/12/02 11:27:54;;;;;;;9.10;4.70;;;0.40;99.90;;;;;;5055837;28;20187;-51
2023/12/02 11:30:34;;;;;;;6.83;5.10;;;0.40;99.90;;;;;;5062851;28;20199;-49
2023/12/02 11:33:13;;;;;;;6.07;4.40;;;0.30;99.90;;;;;;5034679;28;21354;-46
2023/12/02 11:35:53;;;;;;;6.13;4.97;;;0.40;99.90;;;;;;5052427;28;20222;-51
2023/12/02 11:38:20;;;;;;;4.97;4.00;;;0.40;99.90;;;;;;5049752;28;20684;-51
2023/12/02 11:40:56;;;;;;;4.97;4.47;;;0.40;99.90;;;;;;5059390;28;20826;-47
2023/12/02 11:43:38;;;;;;;4.73;3.80;;;0.40;99.90;;;;;;5062374;28;20186;-49
2023/12/02 11:46:08;;;;;;;4.10;3.50;;;0.40;99.90;;;;;;5061918;28;20693;-47
2023/12/02 11:48:47;;;;;;;8.07;4.80;;;0.40;99.90;;;;;;5044448;28;20260;-53
2023/12/02 11:51:34;;;;;;;5.07;4.00;;;0.40;99.90;;;;;;5061316;28;20202;-52
2023/12/02 11:54:13;;;;;;;5.30;4.30;;;0.40;99.90;;;;;;5049262;28;20211;-47
2023/12/02 11:56:48;;;;;;;5.93;4.30;;;0.40;99.90;;;;;;5053556;28;20199;-50
2023/12/02 11:59:16;;;;;;;6.60;4.67;;;0.40;99.90;;;;;;5062044;28;20389;-48
2023/12/02 12:02:02;;;;;;;6.37;4.87;;;0.40;99.90;;;;;;5058457;28;20198;-49
2023/12/02 12:05:00;;;;;;;6.73;4.50;;;0.40;99.90;;;;;;5035972;28;20190;-51
2023/12/02 12:07:41;;;;;;;6.27;4.47;;;0.50;99.90;;;;;;5059563;28;20653;-47
2023/12/02 12:10:12;;;;;;;7.93;4.20;;;0.50;99.90;;;;;;5058683;28;20651;-48
2023/12/02 12:12:43;;;;;;;6.30;4.60;;;0.50;99.90;;;;;;5057175;28;20323;-51
2023/12/02 12:15:10;;;;;;;5.70;4.00;;;0.60;99.90;;;;;;5061989;28;20232;-48
2023/12/02 12:17:38;;;;;;;9.00;4.53;;;0.70;99.90;;;;;;5059856;28;20611;-51
2023/12/02 12:20:17;;;;;;;5.63;4.03;;;0.80;99.90;;;;;;5037887;28;20206;-48
2023/12/02 12:22:46;;;;;;;6.57;4.40;;;0.80;99.90;;;;;;5049472;28;20959;-51
2023/12/02 12:25:13;;;;;;;5.60;4.40;;;0.80;99.90;;;;;;5062273;28;20210;-48
2023/12/02 12:27:40;;;;;;;5.80;4.13;;;0.80;99.90;;;;;;5054321;28;20214;-53
2023/12/02 12:30:08;;;;;;;4.67;4.20;;;0.70;99.90;;;;;;5061694;28;20210;-49
2023/12/02 12:32:35;;;;;;;8.40;5.00;;;0.80;99.90;;;;;;5058832;28;20704;-53
2023/12/02 12:35:10;;;;;;;6.13;4.47;;;0.80;99.90;;;;;;5035671;28;20484;-48
2023/12/02 12:37:37;;;;;;;6.70;4.17;;;0.80;99.90;;;;;;5059383;28;20197;-53
2023/12/02 12:40:09;;;;;;;5.60;4.50;;;0.90;99.90;;;;;;5050466;28;20668;-49
2023/12/02 12:42:36;;;;;;;4.97;4.33;;;0.90;99.90;;;;;;5058943;28;20296;-53
2023/12/02 12:45:03;;;;;;;6.43;4.53;;;0.80;99.90;;;;;;5060435;28;20264;-50
2023/12/02 12:47:31;;;;;;;4.93;4.43;;;0.80;99.90;;;;;;5060189;28;20303;-52